createdAt,value
2023-05-21T00:00:13.305Z,16.00
2023-05-21T00:02:59.177Z,15.90
2023-05-21T00:05:47.151Z,16.00
2023-05-21T00:08:34.164Z,16.00
2023-05-21T00:11:19.558Z,16.00
2023-05-21T00:14:04.849Z,15.90
2023-05-21T00:16:50.653Z,15.90
2023-05-21T00:19:36.515Z,15.90
2023-05-21T00:22:22.460Z,15.80
2023-05-21T00:25:08.189Z,15.80
2023-05-21T00:27:54.786Z,15.80
2023-05-21T00:30:40.459Z,15.80
2023-05-21T00:33:29.404Z,15.80
2023-05-21T00:36:16.535Z,15.80
2023-05-21T00:39:02.571Z,15.80
2023-05-21T00:41:48.683Z,15.80
2023-05-21T00:44:35.389Z,15.80
2023-05-21T00:47:21.690Z,15.80
2023-05-21T00:50:08.016Z,15.70
2023-05-21T00:52:54.460Z,15.70
2023-05-21T00:55:40.638Z,15.80
2023-05-21T00:58:26.388Z,15.70
2023-05-21T01:01:14.016Z,15.80
2023-05-21T01:04:01.823Z,15.80
2023-05-21T01:06:47.136Z,15.70
2023-05-21T01:09:32.822Z,15.70
2023-05-21T01:12:18.870Z,15.70
2023-05-21T01:15:04.934Z,15.60
2023-05-21T01:17:51.580Z,15.60
2023-05-21T01:20:37.842Z,15.50
2023-05-21T01:23:23.650Z,15.50
2023-05-21T01:26:12.876Z,11.60
2023-05-21T01:28:58.902Z,15.40
2023-05-21T01:31:44.568Z,15.40
2023-05-21T01:34:36.880Z,15.40
2023-05-21T01:37:25.694Z,15.40
2023-05-21T01:40:14.901Z,15.40
2023-05-21T01:43:00.999Z,15.30
2023-05-21T01:45:47.464Z,15.40
2023-05-21T01:48:34.702Z,15.30
2023-05-21T01:51:20.249Z,15.10
2023-05-21T01:54:05.742Z,15.20
2023-05-21T01:56:53.718Z,15.20
2023-05-21T01:59:39.006Z,15.30
2023-05-21T02:02:24.827Z,15.30
2023-05-21T02:05:10.513Z,15.30
2023-05-21T02:07:55.869Z,15.20
2023-05-21T02:10:41.727Z,15.10
2023-05-21T02:13:29.228Z,15.20
2023-05-21T02:16:15.984Z,15.20
2023-05-21T02:19:01.554Z,15.10
2023-05-21T02:21:47.269Z,15.20
2023-05-21T02:24:32.640Z,15.20
2023-05-21T02:27:19.032Z,15.20
2023-05-21T02:30:05.466Z,15.10
2023-05-21T02:32:51.307Z,15.20
2023-05-21T02:35:36.964Z,15.20
2023-05-21T02:38:23.123Z,15.10
2023-05-21T02:41:09.642Z,15.10
2023-05-21T02:43:55.001Z,15.10
2023-05-21T02:46:40.873Z,15.10
2023-05-21T02:49:26.364Z,15.20
2023-05-21T02:52:12.442Z,15.10
2023-05-21T02:55:00.547Z,15.10
2023-05-21T02:57:46.139Z,15.00
2023-05-21T03:00:32.137Z,15.00
2023-05-21T03:03:19.379Z,15.10
2023-05-21T03:06:05.035Z,15.00
2023-05-21T03:08:50.760Z,14.90
2023-05-21T03:11:36.653Z,14.90
2023-05-21T03:14:21.938Z,14.90
2023-05-21T03:17:07.864Z,14.90
2023-05-21T03:19:56.102Z,14.90
2023-05-21T03:22:42.840Z,14.80
2023-05-21T03:25:28.318Z,14.90
2023-05-21T03:28:14.008Z,14.90
2023-05-21T03:31:05.844Z,14.90
2023-05-21T03:34:01.398Z,14.80
2023-05-21T03:36:49.591Z,14.90
2023-05-21T03:39:36.933Z,14.80
2023-05-21T03:42:22.548Z,14.90
2023-05-21T03:45:12.291Z,14.90
2023-05-21T03:48:02.030Z,14.80
2023-05-21T03:50:48.855Z,14.90
2023-05-21T03:53:34.924Z,14.90
2023-05-21T03:56:21.627Z,14.90
2023-05-21T03:59:07.174Z,14.90
2023-05-21T04:01:52.929Z,15.00
2023-05-21T04:04:38.599Z,15.00
2023-05-21T04:07:24.076Z,14.90
2023-05-21T04:10:09.796Z,14.90
2023-05-21T04:12:55.377Z,14.90
2023-05-21T04:15:41.141Z,15.00
2023-05-21T04:18:26.867Z,14.90
2023-05-21T04:21:13.273Z,14.90
2023-05-21T04:24:00.852Z,15.00
2023-05-21T04:27:06.039Z,15.00
2023-05-21T04:29:52.055Z,15.10
2023-05-21T04:32:38.479Z,15.00
2023-05-21T04:35:26.097Z,15.00
2023-05-21T04:38:12.656Z,15.10
2023-05-21T04:40:58.815Z,15.20
2023-05-21T04:43:44.564Z,15.10
2023-05-21T04:46:32.009Z,10.90
2023-05-21T04:49:20.987Z,15.10
2023-05-21T04:52:06.500Z,15.10
2023-05-21T04:54:54.016Z,15.20
2023-05-21T04:57:39.818Z,15.20
2023-05-21T05:00:26.522Z,15.30
2023-05-21T05:03:13.081Z,15.20
2023-05-21T05:05:58.891Z,15.20
2023-05-21T05:08:46.146Z,16.30
2023-05-21T05:11:33.185Z,15.20
2023-05-21T05:14:18.869Z,15.30
2023-05-21T05:17:04.437Z,15.30
2023-05-21T05:19:50.642Z,15.30
2023-05-21T05:22:36.130Z,15.30
2023-05-21T05:25:21.980Z,15.40
2023-05-21T05:28:07.509Z,15.40
2023-05-21T05:30:53.020Z,15.40
2023-05-21T05:33:43.620Z,15.40
2023-05-21T05:36:31.600Z,15.40
2023-05-21T05:39:17.451Z,15.50
2023-05-21T05:42:04.620Z,15.40
2023-05-21T05:44:50.008Z,15.50
2023-05-21T05:47:36.115Z,15.60
2023-05-21T05:50:21.659Z,15.50
2023-05-21T05:53:07.419Z,15.60
2023-05-21T05:55:53.090Z,15.60
2023-05-21T05:58:38.750Z,15.60
2023-05-21T06:01:31.979Z,15.60
2023-05-21T06:04:17.680Z,15.60
2023-05-21T06:07:03.174Z,15.60
2023-05-21T06:09:48.853Z,15.70
2023-05-21T06:12:34.840Z,15.80
2023-05-21T06:15:20.410Z,15.70
2023-05-21T06:18:06.187Z,15.80
2023-05-21T06:20:51.780Z,15.80
2023-05-21T06:23:39.058Z,15.80
2023-05-21T06:26:24.503Z,15.80
2023-05-21T06:29:11.190Z,15.80
2023-05-21T06:31:57.374Z,15.80
2023-05-21T06:34:42.955Z,15.90
2023-05-21T06:37:28.392Z,15.90
2023-05-21T06:40:14.718Z,15.90
2023-05-21T06:43:00.566Z,15.90
2023-05-21T06:46:17.592Z,16.00
2023-05-21T06:49:07.022Z,16.00
2023-05-21T06:51:53.150Z,16.00
2023-05-21T06:54:38.876Z,16.10
2023-05-21T06:57:25.574Z,16.10
2023-05-21T07:00:12.331Z,16.10
2023-05-21T07:02:59.266Z,16.10
2023-05-21T07:05:44.984Z,16.20
2023-05-21T07:08:30.582Z,16.20
2023-05-21T07:11:17.237Z,16.30
2023-05-21T07:14:04.023Z,16.30
2023-05-21T07:16:51.952Z,16.30
2023-05-21T07:19:38.266Z,16.30
2023-05-21T07:22:25.072Z,16.40
2023-05-21T07:25:12.529Z,16.40
2023-05-21T07:27:57.747Z,16.50
2023-05-21T07:30:43.493Z,16.50
2023-05-21T07:33:33.453Z,16.60
2023-05-21T07:36:19.175Z,16.70
2023-05-21T07:39:05.102Z,16.80
2023-05-21T07:41:51.007Z,16.80
2023-05-21T07:44:36.839Z,16.90
2023-05-21T07:47:23.559Z,16.90
2023-05-21T07:50:10.160Z,16.90
2023-05-21T07:52:56.866Z,17.00
2023-05-21T07:55:48.891Z,17.10
2023-05-21T07:58:39.439Z,17.30
2023-05-21T08:01:25.075Z,17.40
2023-05-21T08:04:12.303Z,17.50
2023-05-21T08:06:59.733Z,17.60
2023-05-21T08:09:45.518Z,17.60
2023-05-21T08:12:31.718Z,17.70
2023-05-21T08:15:17.849Z,20.50
2023-05-21T08:18:05.686Z,17.90
2023-05-21T08:20:52.705Z,17.90
2023-05-21T08:23:39.588Z,18.30
2023-05-21T08:26:25.252Z,18.10
2023-05-21T08:29:10.966Z,18.20
2023-05-21T08:31:57.333Z,18.30
2023-05-21T08:34:43.237Z,18.20
2023-05-21T08:37:42.505Z,18.30
2023-05-21T08:40:37.652Z,18.30
2023-05-21T08:43:24.118Z,18.30
2023-05-21T08:46:10.882Z,18.40
2023-05-21T08:48:59.257Z,18.30
2023-05-21T08:51:45.781Z,18.40
2023-05-21T08:54:31.474Z,18.40
2023-05-21T08:57:17.523Z,18.40
2023-05-21T09:00:04.876Z,18.50
2023-05-21T09:02:51.144Z,18.50
2023-05-21T09:05:41.897Z,18.50
2023-05-21T09:08:31.241Z,18.50
2023-05-21T09:11:23.237Z,18.60
2023-05-21T09:14:14.588Z,18.70
2023-05-21T09:17:20.199Z,18.70
2023-05-21T09:20:17.455Z,18.80
2023-05-21T09:23:16.772Z,18.90
2023-05-21T09:26:10.824Z,18.90
2023-05-21T09:28:57.471Z,19.00
2023-05-21T09:31:44.624Z,19.00
2023-05-21T09:34:31.551Z,19.10
2023-05-21T09:37:27.135Z,19.00
2023-05-21T09:40:15.438Z,19.10
2023-05-21T09:43:03.080Z,19.20
2023-05-21T09:45:52.693Z,19.20
2023-05-21T09:48:40.840Z,19.30
2023-05-21T09:51:29.416Z,19.40
2023-05-21T09:54:14.826Z,19.40
2023-05-21T09:57:02.701Z,19.50
2023-05-21T09:59:50.010Z,19.50
2023-05-21T10:02:37.420Z,19.60
2023-05-21T10:05:29.112Z,19.60
2023-05-21T10:08:15.487Z,19.70
2023-05-21T10:11:01.420Z,19.70
2023-05-21T10:13:49.095Z,19.70
2023-05-21T10:16:36.464Z,19.80
2023-05-21T10:19:22.702Z,19.80
2023-05-21T10:22:08.309Z,19.90
2023-05-21T10:24:54.416Z,19.90
2023-05-21T10:27:39.748Z,19.90
2023-05-21T10:30:25.693Z,19.90
2023-05-21T10:33:13.375Z,20.00
2023-05-21T10:35:58.859Z,20.00
2023-05-21T10:38:44.741Z,20.00
2023-05-21T10:41:36.002Z,20.00
2023-05-21T10:44:47.810Z,20.00
2023-05-21T10:47:59.541Z,20.10
2023-05-21T10:50:50.977Z,20.10
2023-05-21T10:53:55.268Z,20.10
2023-05-21T10:56:59.776Z,20.20
2023-05-21T10:59:48.657Z,20.20
2023-05-21T11:02:34.350Z,20.30
2023-05-21T11:05:38.448Z,20.30
2023-05-21T11:08:25.084Z,20.30
2023-05-21T11:11:10.670Z,20.40
2023-05-21T11:13:56.392Z,20.40
2023-05-21T11:16:45.859Z,20.40
2023-05-21T11:19:35.995Z,20.50
2023-05-21T11:22:26.386Z,20.50
2023-05-21T11:25:12.612Z,20.60
2023-05-21T11:28:04.134Z,20.70
2023-05-21T11:31:08.407Z,20.70
2023-05-21T11:34:14.076Z,20.80
2023-05-21T11:37:23.164Z,20.80
2023-05-21T11:40:19.119Z,20.80
2023-05-21T11:43:04.712Z,20.80
2023-05-21T11:45:52.388Z,20.80
2023-05-21T11:48:37.996Z,20.80
2023-05-21T11:51:24.641Z,20.80
2023-05-21T11:54:10.308Z,20.90
2023-05-21T11:56:55.924Z,20.90
2023-05-21T11:59:41.350Z,20.90
2023-05-21T12:02:28.479Z,20.90
2023-05-21T12:05:14.694Z,20.90
2023-05-21T12:08:00.130Z,21.00
2023-05-21T12:10:46.247Z,21.00
2023-05-21T12:13:32.176Z,21.00
2023-05-21T12:16:17.654Z,21.10
2023-05-21T12:19:03.808Z,21.10
2023-05-21T12:21:49.191Z,21.10
2023-05-21T12:24:35.542Z,21.10
2023-05-21T12:27:21.539Z,21.20
2023-05-21T12:30:08.370Z,21.20
2023-05-21T12:32:53.932Z,21.20
2023-05-21T12:35:39.719Z,21.20
2023-05-21T12:38:29.941Z,21.30
2023-05-21T12:41:16.175Z,21.30
2023-05-21T12:44:01.646Z,21.40
2023-05-21T12:46:46.967Z,21.40
2023-05-21T12:49:37.040Z,21.40
2023-05-21T12:52:22.675Z,21.50
2023-05-21T12:55:10.451Z,21.60
2023-05-21T12:58:08.316Z,21.60
2023-05-21T13:00:55.030Z,21.70
2023-05-21T13:03:45.014Z,21.80
2023-05-21T13:06:31.696Z,21.90
2023-05-21T13:09:17.091Z,21.90
2023-05-21T13:12:02.701Z,22.00
2023-05-21T13:14:51.960Z,22.10
2023-05-21T13:17:37.571Z,22.20
2023-05-21T13:20:26.427Z,22.20
2023-05-21T13:23:12.146Z,22.30
2023-05-21T13:25:57.772Z,22.40
2023-05-21T13:28:43.441Z,22.40
2023-05-21T13:31:29.134Z,22.50
2023-05-21T13:34:14.841Z,22.50
2023-05-21T13:37:00.481Z,22.60
2023-05-21T13:39:46.590Z,22.60
2023-05-21T13:42:32.239Z,22.70
2023-05-21T13:45:19.065Z,22.80
2023-05-21T13:48:04.993Z,22.90
2023-05-21T13:50:50.167Z,23.00
2023-05-21T13:53:35.843Z,23.20
2023-05-21T13:56:22.217Z,23.20
2023-05-21T13:59:07.540Z,23.30
2023-05-21T14:01:53.385Z,23.40
2023-05-21T14:04:39.544Z,23.40
2023-05-21T14:07:25.705Z,23.40
2023-05-21T14:10:11.686Z,23.40
2023-05-21T14:13:04.284Z,23.50
2023-05-21T14:15:53.024Z,23.60
2023-05-21T14:18:38.854Z,23.60
2023-05-21T14:21:24.772Z,23.60
2023-05-21T14:24:10.390Z,23.70
2023-05-21T14:26:56.044Z,23.70
2023-05-21T14:29:41.687Z,23.80
2023-05-21T14:32:27.312Z,23.80
2023-05-21T14:35:12.993Z,23.80
2023-05-21T14:37:58.560Z,23.80
2023-05-21T14:40:44.280Z,23.80
2023-05-21T14:43:29.825Z,23.80
2023-05-21T14:46:15.651Z,23.80
2023-05-21T14:49:01.277Z,23.80
2023-05-21T14:51:47.618Z,23.80
2023-05-21T14:54:32.888Z,23.80
2023-05-21T14:57:18.670Z,23.80
2023-05-21T15:00:04.301Z,23.70
2023-05-21T15:02:49.988Z,23.70
2023-05-21T15:05:36.156Z,23.70
2023-05-21T15:08:22.701Z,23.60
2023-05-21T15:11:09.854Z,23.60
2023-05-21T15:13:55.213Z,23.50
2023-05-21T15:16:40.936Z,23.50
2023-05-21T15:19:26.538Z,23.50
2023-05-21T15:22:12.146Z,23.50
2023-05-21T15:24:57.709Z,23.50
2023-05-21T15:27:43.474Z,23.40
2023-05-21T15:30:28.821Z,23.30
2023-05-21T15:33:14.483Z,23.20
2023-05-21T15:36:00.057Z,23.10
2023-05-21T15:38:46.234Z,23.00
2023-05-21T15:41:35.223Z,23.00
2023-05-21T15:44:21.128Z,22.90
2023-05-21T15:47:06.970Z,22.80
2023-05-21T15:49:52.513Z,22.70
2023-05-21T15:52:38.065Z,22.70
2023-05-21T15:55:23.504Z,22.70
2023-05-21T15:58:08.950Z,22.60
2023-05-21T16:00:54.559Z,22.50
2023-05-21T16:03:40.176Z,22.50
2023-05-21T16:06:25.905Z,22.40
2023-05-21T16:09:11.522Z,22.40
2023-05-21T16:11:57.004Z,22.40
2023-05-21T16:14:42.942Z,22.30
2023-05-21T16:17:28.376Z,22.30
2023-05-21T16:20:13.902Z,22.30
2023-05-21T16:22:59.690Z,22.30
2023-05-21T16:25:45.335Z,22.30
2023-05-21T16:28:31.066Z,22.20
2023-05-21T16:31:16.925Z,22.30
2023-05-21T16:34:02.763Z,22.30
2023-05-21T16:36:48.513Z,22.30
2023-05-21T16:39:34.230Z,22.20
2023-05-21T16:42:19.848Z,22.30
2023-05-21T16:45:05.994Z,22.30
2023-05-21T16:47:51.609Z,22.30
2023-05-21T16:50:37.537Z,22.30
2023-05-21T16:53:23.324Z,22.30
2023-05-21T16:56:09.384Z,22.30
2023-05-21T16:58:55.078Z,22.30
2023-05-21T17:01:40.774Z,22.30
2023-05-21T17:04:26.511Z,22.30
2023-05-21T17:07:11.976Z,22.30
2023-05-21T17:09:57.628Z,22.30
2023-05-21T17:12:43.363Z,22.30
2023-05-21T17:15:29.416Z,22.30
2023-05-21T17:18:15.368Z,22.30
2023-05-21T17:21:00.745Z,24.00
2023-05-21T17:23:46.421Z,22.40
2023-05-21T17:26:32.183Z,22.40
2023-05-21T17:29:17.658Z,22.40
2023-05-21T17:32:03.699Z,22.40
2023-05-21T17:34:49.394Z,22.40
2023-05-21T17:37:34.967Z,22.40
2023-05-21T17:40:23.126Z,22.40
2023-05-21T17:43:08.816Z,22.40
2023-05-21T17:45:54.559Z,22.40
2023-05-21T17:48:39.928Z,22.40
2023-05-21T17:51:25.565Z,22.40
2023-05-21T17:54:11.474Z,22.40
2023-05-21T17:56:57.069Z,22.40
2023-05-21T17:59:45.154Z,22.40
2023-05-21T18:02:30.537Z,22.40
2023-05-21T18:05:16.187Z,22.40
2023-05-21T18:08:02.766Z,22.40
2023-05-21T18:10:48.099Z,22.40
2023-05-21T18:13:33.659Z,22.40
2023-05-21T18:16:19.493Z,22.40
2023-05-21T18:19:07.982Z,22.40
2023-05-21T18:21:53.557Z,22.30
2023-05-21T18:24:39.694Z,22.30
2023-05-21T18:27:25.626Z,22.30
2023-05-21T18:30:11.306Z,22.30
2023-05-21T18:32:56.756Z,22.30
2023-05-21T18:35:44.101Z,22.30
2023-05-21T18:38:29.523Z,22.30
2023-05-21T18:41:15.234Z,22.30
2023-05-21T18:44:03.708Z,22.30
2023-05-21T18:46:49.532Z,22.30
2023-05-21T18:49:36.217Z,22.30
2023-05-21T18:52:22.166Z,22.30
2023-05-21T18:55:08.276Z,22.30
2023-05-21T18:57:54.892Z,22.20
2023-05-21T19:00:40.523Z,22.20
2023-05-21T19:03:26.115Z,22.20
2023-05-21T19:06:11.399Z,22.20
2023-05-21T19:08:57.044Z,22.20
2023-05-21T19:11:43.094Z,22.20
2023-05-21T19:14:28.575Z,22.20
2023-05-21T19:17:14.254Z,22.20
2023-05-21T19:19:59.935Z,22.20
2023-05-21T19:22:45.354Z,18.50
2023-05-21T19:25:33.908Z,22.20
2023-05-21T19:28:19.476Z,22.20
2023-05-21T19:31:05.154Z,22.20
2023-05-21T19:33:51.177Z,22.20
2023-05-21T19:36:51.528Z,22.20
2023-05-21T19:39:42.398Z,22.20
2023-05-21T19:42:27.817Z,22.20
2023-05-21T19:45:13.389Z,22.10
2023-05-21T19:47:59.820Z,22.10
2023-05-21T19:50:45.678Z,22.10
2023-05-21T19:53:31.416Z,22.10
2023-05-21T19:56:17.116Z,22.10
2023-05-21T19:59:02.696Z,22.10
2023-05-21T20:01:48.592Z,22.10
2023-05-21T20:04:34.124Z,22.10
2023-05-21T20:07:19.296Z,22.10
2023-05-21T20:10:05.237Z,22.10
2023-05-21T20:12:50.791Z,22.10
2023-05-21T20:15:36.324Z,22.10
2023-05-21T20:18:22.148Z,22.10
2023-05-21T20:21:07.700Z,22.10
2023-05-21T20:23:53.301Z,22.10
2023-05-21T20:26:40.004Z,22.10
2023-05-21T20:29:25.245Z,22.10
2023-05-21T20:32:10.945Z,22.10
2023-05-21T20:35:03.448Z,22.00
2023-05-21T20:37:49.446Z,22.10
2023-05-21T20:40:34.876Z,22.00
2023-05-21T20:43:20.509Z,22.10
2023-05-21T20:46:06.218Z,22.10
2023-05-21T20:48:53.008Z,22.10
2023-05-21T20:51:38.402Z,22.10
2023-05-21T20:54:24.086Z,22.10
2023-05-21T20:57:09.687Z,22.10
2023-05-21T20:59:56.201Z,22.10
2023-05-21T21:02:41.825Z,22.10
2023-05-21T21:05:28.073Z,22.10
2023-05-21T21:08:13.514Z,22.10
2023-05-21T21:10:58.938Z,22.00
2023-05-21T21:13:44.542Z,22.00
2023-05-21T21:16:30.383Z,22.00
2023-05-21T21:19:16.097Z,22.00
2023-05-21T21:22:01.387Z,22.00
2023-05-21T21:24:47.459Z,22.00
2023-05-21T21:27:33.109Z,22.00
2023-05-21T21:30:18.892Z,22.00
2023-05-21T21:33:04.506Z,22.00
2023-05-21T21:35:50.377Z,22.00
2023-05-21T21:38:36.222Z,21.90
2023-05-21T21:41:22.458Z,21.90
2023-05-21T21:44:07.975Z,21.90
2023-05-21T21:46:53.318Z,21.90
2023-05-21T21:49:39.012Z,21.90
2023-05-21T21:52:27.425Z,21.90
2023-05-21T21:55:13.196Z,21.90
2023-05-21T21:57:58.731Z,21.90
2023-05-21T22:00:44.455Z,21.90
2023-05-21T22:03:32.240Z,21.80
2023-05-21T22:06:17.482Z,21.80
2023-05-21T22:09:03.078Z,21.90
2023-05-21T22:11:48.926Z,21.90
2023-05-21T22:14:34.781Z,21.80
2023-05-21T22:17:21.363Z,21.90
2023-05-21T22:20:07.252Z,21.90
2023-05-21T22:22:54.776Z,21.90
2023-05-21T22:25:41.308Z,21.80
2023-05-21T22:28:26.857Z,21.90
2023-05-21T22:31:12.658Z,21.90
2023-05-21T22:33:58.249Z,21.80
2023-05-21T22:36:44.745Z,21.80
2023-05-21T22:39:30.141Z,21.80
2023-05-21T22:42:15.853Z,21.80
2023-05-21T22:45:01.894Z,21.80
2023-05-21T22:47:48.218Z,21.80
2023-05-21T22:50:33.956Z,21.80
2023-05-21T22:53:19.412Z,21.80
2023-05-21T22:56:05.307Z,21.70
2023-05-21T22:58:51.243Z,21.70
2023-05-21T23:01:38.091Z,21.60
2023-05-21T23:04:35.781Z,21.50
2023-05-21T23:07:25.693Z,21.50
2023-05-21T23:10:10.978Z,21.40
2023-05-21T23:12:56.770Z,21.40
2023-05-21T23:15:43.839Z,21.40
2023-05-21T23:18:29.439Z,21.30
2023-05-21T23:21:15.518Z,21.40
2023-05-21T23:24:01.002Z,21.30
2023-05-21T23:26:46.691Z,21.30
2023-05-21T23:29:32.054Z,21.30
2023-05-21T23:32:17.982Z,21.30
2023-05-21T23:35:03.796Z,21.30
2023-05-21T23:37:49.114Z,21.30
2023-05-21T23:40:34.934Z,21.30
2023-05-21T23:43:20.421Z,21.30
2023-05-21T23:46:08.985Z,21.20
2023-05-21T23:48:54.646Z,21.20
2023-05-21T23:51:40.295Z,21.20
2023-05-21T23:54:26.007Z,21.20
2023-05-21T23:57:11.479Z,21.10
2023-05-21T23:59:57.511Z,21.10
